Terminal Aerodrome Forecast
Issued by NWS

Home | Current Version | Previous Version | Text Only | Print | Product List | Glossary On
Versions: 1 2 3 4 5 6 7 8 9 10 11 12 13 14
000
FTUS44 KEPZ 300525
TAFTCS
TAF
KTCS 300525Z 3006/3106 28007KT P6SM SKC
     FM301700 18012G22KT P6SM FEW100
     FM302200 21016G26KT P6SM SCT100 SCT140 BKN250
     FM310400 30005KT P6SM FEW150 SCT250=

USA.gov is the U.S. government's official web portal to all federal, state and local government web resources and services.